createdAt,value
2024-01-31T00:01:33.467Z,102144.40
2024-01-31T00:04:02.323Z,102145.60
2024-01-31T00:06:30.734Z,102139.40
2024-01-31T00:08:59.024Z,102135.80
2024-01-31T00:11:30.255Z,102133.80
2024-01-31T00:13:58.785Z,102129.80
2024-01-31T00:16:26.832Z,102135.40
2024-01-31T00:18:55.364Z,102134.40
2024-01-31T00:21:25.243Z,102134.60
2024-01-31T00:23:54.642Z,102130.60
2024-01-31T00:26:22.920Z,102133.20
2024-01-31T00:28:51.041Z,102134.40
2024-01-31T00:31:19.318Z,102131.20
2024-01-31T00:33:49.030Z,102139.60
2024-01-31T00:36:17.196Z,102135.00
2024-01-31T00:38:45.379Z,102135.60
2024-01-31T00:41:13.490Z,102136.40
2024-01-31T00:43:41.686Z,102133.20
2024-01-31T00:46:10.031Z,102134.00
2024-01-31T00:48:38.474Z,102133.00
2024-01-31T00:51:13.471Z,102137.20
2024-01-31T00:53:41.548Z,102129.20
2024-01-31T00:56:12.653Z,102130.60
2024-01-31T00:58:40.950Z,102129.20
2024-01-31T01:01:11.706Z,102128.20
2024-01-31T01:03:40.102Z,102121.80
2024-01-31T01:06:08.343Z,102114.20
2024-01-31T01:08:37.081Z,102116.00
2024-01-31T01:11:05.239Z,102102.60
2024-01-31T01:13:33.400Z,102101.40
2024-01-31T01:16:01.590Z,102099.60
2024-01-31T01:18:31.885Z,102098.60
2024-01-31T01:21:00.148Z,102099.20
2024-01-31T01:23:28.252Z,102096.40
2024-01-31T01:25:56.306Z,102095.80
2024-01-31T01:28:24.530Z,102095.80
2024-01-31T01:30:52.576Z,102095.40
2024-01-31T01:33:20.660Z,102093.20
2024-01-31T01:35:48.842Z,102085.40
2024-01-31T01:38:17.046Z,102081.20
2024-01-31T01:40:46.261Z,102077.20
2024-01-31T01:43:18.835Z,102069.40
2024-01-31T01:45:47.545Z,102075.60
2024-01-31T01:48:17.578Z,102078.60
2024-01-31T01:50:46.584Z,102078.40
2024-01-31T01:53:15.265Z,102067.80
2024-01-31T01:55:45.023Z,102064.40
2024-01-31T01:58:13.721Z,102067.00
2024-01-31T02:00:45.712Z,102065.40
2024-01-31T02:03:16.407Z,102061.40
2024-01-31T02:05:46.978Z,102060.00
2024-01-31T02:08:15.080Z,102056.40
2024-01-31T02:10:43.579Z,102055.00
2024-01-31T02:13:12.010Z,102049.60
2024-01-31T02:15:40.496Z,102044.60
2024-01-31T02:18:09.281Z,102042.80
2024-01-31T02:20:37.901Z,102046.60
2024-01-31T02:23:06.858Z,102044.00
2024-01-31T02:28:50.659Z,102039.80
2024-01-31T02:34:34.677Z,102036.80
2024-01-31T02:37:03.188Z,102027.20
2024-01-31T02:39:34.997Z,102025.00
2024-01-31T02:42:03.530Z,102022.40
2024-01-31T02:44:31.580Z,102023.40
2024-01-31T02:46:59.717Z,102025.80
2024-01-31T02:49:27.894Z,102027.20
2024-01-31T02:51:55.936Z,102031.00
2024-01-31T02:54:23.933Z,102027.60
2024-01-31T02:56:51.887Z,102023.60
2024-01-31T02:59:21.880Z,102029.20
2024-01-31T03:01:51.240Z,102025.20
2024-01-31T03:04:19.709Z,102024.60
2024-01-31T03:06:47.964Z,102024.80
2024-01-31T03:09:16.502Z,102027.80
2024-01-31T03:11:44.612Z,102026.40
2024-01-31T03:14:12.752Z,102031.40
2024-01-31T03:16:41.684Z,102028.00
2024-01-31T03:19:10.728Z,102034.00
2024-01-31T03:21:39.652Z,102018.40
2024-01-31T03:24:08.294Z,102020.00
2024-01-31T03:26:36.331Z,102021.00
2024-01-31T03:29:04.479Z,102018.20
2024-01-31T03:31:32.722Z,102016.20
2024-01-31T03:34:01.178Z,102017.00
2024-01-31T03:36:29.465Z,102015.00
2024-01-31T03:39:00.199Z,102006.60
2024-01-31T03:41:29.231Z,102011.00
2024-01-31T03:43:57.549Z,102008.80
2024-01-31T03:46:26.487Z,102009.40
2024-01-31T03:48:54.618Z,102008.20
2024-01-31T03:51:24.122Z,102002.80
2024-01-31T03:53:52.250Z,101999.40
2024-01-31T03:56:20.596Z,101991.80
2024-01-31T03:58:48.846Z,101991.60
2024-01-31T04:01:19.339Z,101988.60
2024-01-31T04:03:47.873Z,101992.00
2024-01-31T04:06:16.129Z,101991.00
2024-01-31T04:08:44.187Z,101991.20
2024-01-31T04:11:12.268Z,101995.60
2024-01-31T04:13:43.815Z,101992.80
2024-01-31T04:16:17.007Z,101998.60
2024-01-31T04:18:45.249Z,101993.40
2024-01-31T04:21:22.551Z,101993.00
2024-01-31T04:23:50.883Z,101991.20
2024-01-31T04:26:19.084Z,101993.60
2024-01-31T04:28:47.314Z,101996.20
2024-01-31T04:31:16.025Z,102001.20
2024-01-31T04:33:44.957Z,102000.40
2024-01-31T04:36:13.228Z,101998.60
2024-01-31T04:38:41.320Z,101998.40
2024-01-31T04:41:09.921Z,101999.60
2024-01-31T04:43:38.045Z,101996.40
2024-01-31T04:46:06.231Z,102002.60
2024-01-31T04:48:34.451Z,101998.80
2024-01-31T04:51:03.968Z,101997.60
2024-01-31T04:53:32.041Z,101996.80
2024-01-31T04:56:01.369Z,101994.60
2024-01-31T04:58:29.478Z,101994.00
2024-01-31T05:00:57.557Z,101993.80
2024-01-31T05:03:25.869Z,101996.60
2024-01-31T05:05:54.082Z,101992.20
2024-01-31T05:08:22.236Z,102001.00
2024-01-31T05:10:50.360Z,101997.80
2024-01-31T05:13:18.457Z,101996.60
2024-01-31T05:15:46.430Z,101994.00
2024-01-31T05:18:15.878Z,101994.00
2024-01-31T05:20:44.103Z,101996.00
2024-01-31T05:23:12.317Z,101992.20
2024-01-31T05:25:40.461Z,101997.80
2024-01-31T05:28:08.689Z,101995.60
2024-01-31T05:30:36.889Z,101995.40
2024-01-31T05:33:05.275Z,101996.60
2024-01-31T05:35:37.195Z,101999.00
2024-01-31T05:38:06.296Z,101997.00
2024-01-31T05:40:34.357Z,101997.00
2024-01-31T05:43:03.000Z,101997.00
2024-01-31T05:45:31.131Z,101996.60
2024-01-31T05:47:59.363Z,101997.00
2024-01-31T05:50:27.642Z,101997.40
2024-01-31T05:52:55.740Z,101996.80
2024-01-31T05:55:24.300Z,101997.00
2024-01-31T05:57:53.242Z,101991.20
2024-01-31T06:00:21.641Z,101993.80
2024-01-31T06:02:52.152Z,101993.20
2024-01-31T06:05:23.540Z,101991.20
2024-01-31T06:07:51.685Z,101994.00
2024-01-31T06:10:21.070Z,101989.60
2024-01-31T06:12:49.288Z,101995.60
2024-01-31T06:15:18.063Z,102001.60
2024-01-31T06:17:49.699Z,102008.00
2024-01-31T06:20:19.236Z,102006.00
2024-01-31T06:22:47.472Z,102013.20
2024-01-31T06:25:15.718Z,102009.00
2024-01-31T06:27:43.862Z,102008.60
2024-01-31T06:30:20.820Z,102012.00
2024-01-31T06:32:49.397Z,102025.80
2024-01-31T06:35:17.780Z,102028.40
2024-01-31T06:37:46.560Z,102023.00
2024-01-31T06:40:14.827Z,102028.20
2024-01-31T06:42:42.916Z,102029.20
2024-01-31T06:45:14.070Z,102025.20
2024-01-31T06:47:44.058Z,102028.40
2024-01-31T06:50:13.434Z,102031.20
2024-01-31T06:52:41.928Z,102037.40
2024-01-31T06:55:10.421Z,102039.40
2024-01-31T06:57:39.048Z,102040.20
2024-01-31T07:00:08.948Z,102043.20
2024-01-31T07:02:38.070Z,102041.80
2024-01-31T07:05:06.356Z,102034.20
2024-01-31T07:07:34.990Z,102034.20
2024-01-31T07:10:03.376Z,102036.40
2024-01-31T07:12:31.539Z,102034.20
2024-01-31T07:14:59.539Z,102030.40
2024-01-31T07:17:27.692Z,102026.20
2024-01-31T07:19:55.836Z,102027.40
2024-01-31T07:22:24.128Z,102031.00
2024-01-31T07:24:52.119Z,102029.00
2024-01-31T07:27:20.166Z,102023.00
2024-01-31T07:29:48.226Z,102024.60
2024-01-31T07:32:16.290Z,102025.60
2024-01-31T07:34:44.348Z,102026.80
2024-01-31T07:37:12.657Z,102034.80
2024-01-31T07:39:40.670Z,102029.80
2024-01-31T07:42:10.095Z,102036.80
2024-01-31T07:44:38.854Z,102038.20
2024-01-31T07:47:07.414Z,102031.20
2024-01-31T07:49:35.660Z,102030.60
2024-01-31T07:52:04.047Z,102025.80
2024-01-31T07:54:32.184Z,102024.60
2024-01-31T07:57:00.869Z,102021.20
2024-01-31T07:59:28.913Z,102016.20
2024-01-31T08:01:57.015Z,102017.40
2024-01-31T08:04:25.131Z,102015.20
2024-01-31T08:06:53.199Z,102018.40
2024-01-31T08:09:24.050Z,102013.20
2024-01-31T08:11:52.085Z,102017.00
2024-01-31T08:14:20.389Z,102017.00
2024-01-31T08:16:51.345Z,102013.40
2024-01-31T08:19:20.088Z,102013.00
2024-01-31T08:21:48.282Z,102014.80
2024-01-31T08:24:16.984Z,102016.60
2024-01-31T08:26:45.790Z,102010.20
2024-01-31T08:29:20.580Z,102010.60
2024-01-31T08:31:55.492Z,102010.80
2024-01-31T08:34:27.228Z,102013.20
2024-01-31T08:36:57.880Z,102015.00
2024-01-31T08:39:26.106Z,102013.20
2024-01-31T08:41:54.412Z,102010.00
2024-01-31T08:44:23.866Z,102008.60
2024-01-31T08:47:04.014Z,102009.60
2024-01-31T08:49:41.635Z,102009.80
2024-01-31T08:52:10.020Z,102011.00
2024-01-31T08:54:38.398Z,102002.60
2024-01-31T08:57:06.530Z,102003.80
2024-01-31T08:59:34.965Z,101999.80
2024-01-31T09:02:03.157Z,101999.00
2024-01-31T09:04:31.475Z,101999.00
2024-01-31T09:06:59.739Z,101999.40
2024-01-31T09:09:28.081Z,102001.40
2024-01-31T09:11:56.416Z,101995.80
2024-01-31T09:14:24.635Z,101998.00
2024-01-31T09:16:52.738Z,101996.40
2024-01-31T09:19:23.707Z,101993.20
2024-01-31T09:21:52.393Z,101988.80
2024-01-31T09:24:20.544Z,101992.60
2024-01-31T09:26:48.698Z,101985.40
2024-01-31T09:29:16.669Z,101982.40
2024-01-31T09:31:44.820Z,101976.00
2024-01-31T09:34:13.169Z,101971.20
2024-01-31T09:36:41.796Z,101977.40
2024-01-31T09:39:11.425Z,101975.60
2024-01-31T09:41:39.663Z,101971.00
2024-01-31T09:44:08.469Z,101968.40
2024-01-31T09:46:37.557Z,101965.20
2024-01-31T09:49:05.909Z,101961.40
2024-01-31T09:51:34.871Z,101960.80
2024-01-31T09:54:03.070Z,101956.00
2024-01-31T09:56:33.579Z,101952.00
2024-01-31T09:59:02.007Z,101947.20
2024-01-31T10:01:32.926Z,101946.60
2024-01-31T10:04:02.167Z,101940.80
2024-01-31T10:06:31.236Z,101937.80
2024-01-31T10:09:00.672Z,101930.00
2024-01-31T10:11:31.374Z,101926.40
2024-01-31T10:13:59.659Z,101921.40
2024-01-31T10:16:28.086Z,101922.80
2024-01-31T10:18:56.384Z,101917.20
2024-01-31T10:21:24.571Z,101915.40
2024-01-31T10:24:00.354Z,101908.20
2024-01-31T10:26:29.255Z,101907.00
2024-01-31T10:29:08.913Z,101904.20
2024-01-31T10:31:41.650Z,101898.20
2024-01-31T10:34:11.962Z,101892.20
2024-01-31T10:37:26.842Z,101890.40
2024-01-31T10:39:34.203Z,101886.40
2024-01-31T10:42:02.645Z,101884.20
2024-01-31T10:44:33.250Z,101886.20
2024-01-31T10:47:01.728Z,101885.00
2024-01-31T10:49:30.194Z,101884.00
2024-01-31T10:52:01.253Z,101881.00
2024-01-31T10:54:33.891Z,101877.20
2024-01-31T10:57:04.802Z,101876.40
2024-01-31T10:59:38.929Z,101868.60
2024-01-31T11:02:15.065Z,101863.80
2024-01-31T11:04:44.297Z,101856.00
2024-01-31T11:07:19.874Z,101853.40
2024-01-31T11:09:49.292Z,101849.60
2024-01-31T11:12:18.098Z,101841.20
2024-01-31T11:14:48.068Z,101840.00
2024-01-31T11:17:23.752Z,101831.20
2024-01-31T11:19:54.313Z,101822.40
2024-01-31T11:22:22.769Z,101818.60
2024-01-31T11:24:55.841Z,101811.60
2024-01-31T11:27:24.411Z,101809.40
2024-01-31T11:29:53.678Z,101807.00
2024-01-31T11:32:23.673Z,101806.80
2024-01-31T11:35:05.935Z,101800.20
2024-01-31T11:37:34.394Z,101796.80
2024-01-31T11:40:02.892Z,101792.20
2024-01-31T11:42:31.135Z,101794.40
2024-01-31T11:44:59.466Z,101789.40
2024-01-31T11:47:29.326Z,101784.80
2024-01-31T11:50:05.531Z,101777.20
2024-01-31T11:52:33.811Z,101767.00
2024-01-31T11:55:01.945Z,101769.80
2024-01-31T11:57:30.537Z,101769.80
2024-01-31T11:59:58.824Z,101774.80
2024-01-31T12:02:27.477Z,101766.00
2024-01-31T12:05:00.044Z,101763.00
2024-01-31T12:07:30.446Z,101755.80
2024-01-31T12:09:59.861Z,101755.00
2024-01-31T12:12:28.276Z,101755.20
2024-01-31T12:14:56.643Z,101745.80
2024-01-31T12:17:29.059Z,101736.80
2024-01-31T12:20:08.064Z,101735.40
2024-01-31T12:22:38.126Z,101732.80
2024-01-31T12:25:07.379Z,101731.40
2024-01-31T12:27:35.617Z,101730.40
2024-01-31T12:30:04.872Z,101729.60
2024-01-31T12:32:33.129Z,101726.80
2024-01-31T12:35:01.533Z,101723.20
2024-01-31T12:37:29.748Z,101724.20
2024-01-31T12:39:57.825Z,101714.80
2024-01-31T12:42:26.487Z,101714.40
2024-01-31T12:44:56.737Z,101713.80
2024-01-31T12:47:25.955Z,101711.60
2024-01-31T12:49:54.182Z,101708.80
2024-01-31T12:52:26.648Z,101711.80
2024-01-31T12:54:55.455Z,101707.20
2024-01-31T12:57:23.683Z,101706.20
2024-01-31T12:59:53.460Z,101702.60
2024-01-31T13:02:21.818Z,101703.40
2024-01-31T13:04:50.429Z,101699.80
2024-01-31T13:07:19.105Z,101690.40
2024-01-31T13:09:47.679Z,101689.80
2024-01-31T13:12:16.522Z,101691.00
2024-01-31T13:14:44.988Z,101691.20
2024-01-31T13:17:13.269Z,101689.60
2024-01-31T13:19:41.396Z,101692.00
2024-01-31T13:22:09.959Z,101691.00
2024-01-31T13:24:39.216Z,101690.80
2024-01-31T13:27:07.562Z,101685.20
2024-01-31T13:29:36.147Z,101681.60
2024-01-31T13:32:04.875Z,101678.00
2024-01-31T13:34:33.168Z,101677.40
2024-01-31T13:37:02.234Z,101670.40
2024-01-31T13:39:30.284Z,101671.40
2024-01-31T13:42:02.562Z,101667.60
2024-01-31T13:44:30.719Z,101671.20
2024-01-31T13:46:58.860Z,101663.00
2024-01-31T13:49:27.485Z,101665.20
2024-01-31T13:51:55.595Z,101660.80
2024-01-31T13:54:23.532Z,101659.80
2024-01-31T13:56:51.571Z,101660.00
2024-01-31T13:59:19.749Z,101655.60
2024-01-31T14:01:47.846Z,101657.40
2024-01-31T14:04:17.480Z,101657.40
2024-01-31T14:06:45.585Z,101656.40
2024-01-31T14:09:13.596Z,101665.20
2024-01-31T14:11:41.573Z,101660.80
2024-01-31T14:14:09.730Z,101659.60
2024-01-31T14:16:37.795Z,101660.00
2024-01-31T14:19:05.782Z,101658.60
2024-01-31T14:21:33.928Z,101651.40
2024-01-31T14:24:09.478Z,101657.20
2024-01-31T14:26:43.749Z,101653.40
2024-01-31T14:29:14.519Z,101651.60
2024-01-31T14:31:47.158Z,101655.20
2024-01-31T14:34:15.855Z,101645.60
2024-01-31T14:36:45.585Z,101643.00
2024-01-31T14:39:14.070Z,101635.20
2024-01-31T14:41:43.787Z,101635.20
2024-01-31T14:44:12.088Z,101632.00
2024-01-31T14:46:41.588Z,101635.60
2024-01-31T14:49:13.488Z,101633.80
2024-01-31T14:51:42.211Z,101637.40
2024-01-31T14:54:11.270Z,101632.20
2024-01-31T14:56:53.020Z,101631.20
2024-01-31T14:59:22.649Z,101632.80
2024-01-31T15:01:51.246Z,101628.60
2024-01-31T15:04:19.529Z,101631.20
2024-01-31T15:06:47.912Z,101630.60
2024-01-31T15:09:17.429Z,101622.80
2024-01-31T15:11:46.264Z,101622.80
2024-01-31T15:14:14.529Z,101625.00
2024-01-31T15:16:42.611Z,101627.60
2024-01-31T15:19:11.024Z,101634.00
2024-01-31T15:21:40.422Z,101630.20
2024-01-31T15:24:08.963Z,101634.00
2024-01-31T15:26:37.296Z,101636.80
2024-01-31T15:29:05.459Z,101638.20
2024-01-31T15:31:34.037Z,101636.00
2024-01-31T15:34:02.438Z,101634.60
2024-01-31T15:36:30.914Z,101632.60
2024-01-31T15:39:02.016Z,101636.80
2024-01-31T15:41:30.377Z,101634.60
2024-01-31T15:43:58.571Z,101638.80
2024-01-31T15:46:28.291Z,101643.00
2024-01-31T15:48:56.803Z,101644.60
2024-01-31T15:51:26.214Z,101641.20
2024-01-31T15:53:54.661Z,101647.00
2024-01-31T15:56:23.005Z,101646.20
2024-01-31T15:58:51.245Z,101647.00
2024-01-31T16:01:19.416Z,101637.80
2024-01-31T16:03:47.492Z,101637.20
2024-01-31T16:06:15.751Z,101641.60
2024-01-31T16:08:44.073Z,101635.80
2024-01-31T16:11:14.190Z,101638.20
2024-01-31T16:13:42.270Z,101635.20
2024-01-31T16:16:12.202Z,101633.20
2024-01-31T16:18:40.509Z,101638.00
2024-01-31T16:21:11.874Z,101630.40
2024-01-31T16:23:41.736Z,101627.20
2024-01-31T16:26:09.774Z,101624.80
2024-01-31T16:28:37.894Z,101623.40
2024-01-31T16:31:06.653Z,101622.40
2024-01-31T16:33:34.907Z,101619.40
2024-01-31T16:36:03.634Z,101624.20
2024-01-31T16:38:31.638Z,101624.40
2024-01-31T16:40:59.705Z,101621.00
2024-01-31T16:43:28.077Z,101628.00
2024-01-31T16:45:56.174Z,101631.20
2024-01-31T16:48:24.440Z,101627.20
2024-01-31T16:50:52.545Z,101619.60
2024-01-31T16:53:20.652Z,101615.60
2024-01-31T16:55:48.674Z,101621.00
2024-01-31T16:58:16.693Z,101621.40
2024-01-31T17:00:44.793Z,101618.40
2024-01-31T17:03:13.419Z,101622.20
2024-01-31T17:05:42.009Z,101624.80
2024-01-31T17:08:10.241Z,101625.00
2024-01-31T17:10:38.305Z,101626.20
2024-01-31T17:13:06.455Z,101624.40
2024-01-31T17:15:34.498Z,101624.40
2024-01-31T17:18:05.010Z,101625.60
2024-01-31T17:20:33.266Z,101619.80
2024-01-31T17:23:02.714Z,101628.20
2024-01-31T17:25:32.437Z,101624.40
2024-01-31T17:28:00.498Z,101621.40
2024-01-31T17:30:28.596Z,101627.60
2024-01-31T17:32:56.793Z,101621.60
2024-01-31T17:35:24.899Z,101620.00
2024-01-31T17:37:52.955Z,101616.40
2024-01-31T17:40:22.364Z,101623.40
2024-01-31T17:42:50.383Z,101626.20
2024-01-31T17:45:18.596Z,101628.80
2024-01-31T17:47:47.324Z,101618.40
2024-01-31T17:50:15.576Z,101612.80
2024-01-31T17:52:44.133Z,101608.60
2024-01-31T17:55:14.209Z,101612.20
2024-01-31T17:57:42.308Z,101608.00
2024-01-31T18:00:11.363Z,101606.80
2024-01-31T18:02:39.472Z,101602.80
2024-01-31T18:05:08.017Z,101602.80
2024-01-31T18:07:36.854Z,101606.20
2024-01-31T18:10:05.212Z,101605.40
2024-01-31T18:12:33.266Z,101599.00
2024-01-31T18:15:01.367Z,101592.00
2024-01-31T18:17:30.212Z,101593.40
2024-01-31T18:19:58.698Z,101596.60
2024-01-31T18:22:26.874Z,101596.00
2024-01-31T18:24:54.969Z,101593.00
2024-01-31T18:27:23.189Z,101593.80
2024-01-31T18:29:51.585Z,101595.80
2024-01-31T18:32:26.545Z,101594.20
2024-01-31T18:34:55.272Z,101593.60
2024-01-31T18:37:23.861Z,101596.40
2024-01-31T18:39:51.974Z,101590.00
2024-01-31T18:42:19.958Z,101585.40
2024-01-31T18:44:48.279Z,101589.60
2024-01-31T18:47:16.917Z,101588.00
2024-01-31T18:49:45.499Z,101586.80
2024-01-31T18:52:13.696Z,101581.00
2024-01-31T18:54:41.783Z,101581.60
2024-01-31T18:57:09.778Z,101578.80
2024-01-31T18:59:37.804Z,101577.80
2024-01-31T19:02:07.177Z,101576.80
2024-01-31T19:04:35.305Z,101572.00
2024-01-31T19:07:04.181Z,101572.60
2024-01-31T19:09:32.416Z,101573.00
2024-01-31T19:12:00.738Z,101574.60
2024-01-31T19:14:28.962Z,101568.60
2024-01-31T19:17:00.446Z,101566.20
2024-01-31T19:19:32.948Z,101560.80
2024-01-31T19:22:03.734Z,101560.60
2024-01-31T19:24:35.344Z,101552.80
2024-01-31T19:27:03.640Z,101548.80
2024-01-31T19:29:34.014Z,101549.40
2024-01-31T19:32:02.481Z,101549.40
2024-01-31T19:34:30.865Z,101550.40
2024-01-31T19:36:58.882Z,101551.00
2024-01-31T19:39:27.104Z,101546.40
2024-01-31T19:41:55.255Z,101541.80
2024-01-31T19:44:23.470Z,101540.60
2024-01-31T19:46:58.604Z,101539.40
2024-01-31T19:49:28.289Z,101541.00
2024-01-31T19:51:57.315Z,101532.80
2024-01-31T19:54:25.772Z,101540.00
2024-01-31T19:56:54.103Z,101546.20
2024-01-31T19:59:24.535Z,101543.00
2024-01-31T20:01:52.552Z,101548.40
2024-01-31T20:04:21.656Z,101545.80
2024-01-31T20:06:49.856Z,101548.00
2024-01-31T20:09:18.057Z,101539.20
2024-01-31T20:11:47.650Z,101540.80
2024-01-31T20:14:15.726Z,101537.40
2024-01-31T20:16:43.693Z,101536.20
2024-01-31T20:19:12.783Z,101531.80
2024-01-31T20:21:41.184Z,101527.20
2024-01-31T20:24:09.504Z,101529.00
2024-01-31T20:26:38.677Z,101524.80
2024-01-31T20:29:09.913Z,101520.20
2024-01-31T20:31:37.973Z,101518.00
2024-01-31T20:34:07.113Z,101511.60
2024-01-31T20:36:35.213Z,101506.00
2024-01-31T20:39:03.278Z,101509.40
2024-01-31T20:41:32.191Z,101506.40
2024-01-31T20:44:00.274Z,101506.20
2024-01-31T20:46:30.363Z,101501.60
2024-01-31T20:48:59.733Z,101494.00
2024-01-31T20:51:27.783Z,101491.00
2024-01-31T20:53:56.053Z,101483.60
2024-01-31T20:56:26.563Z,101488.20
2024-01-31T20:58:57.210Z,101477.40
2024-01-31T21:01:26.208Z,101479.80
2024-01-31T21:03:54.320Z,101473.80
2024-01-31T21:06:22.486Z,101474.80
2024-01-31T21:08:50.964Z,101471.60
2024-01-31T21:11:19.429Z,101469.00
2024-01-31T21:13:47.656Z,101465.40
2024-01-31T21:16:15.937Z,101469.20
2024-01-31T21:18:44.323Z,101460.20
2024-01-31T21:21:12.888Z,101469.80
2024-01-31T21:23:41.113Z,101467.40
2024-01-31T21:26:09.294Z,101473.80
2024-01-31T21:28:37.373Z,101466.20
2024-01-31T21:31:05.361Z,101464.80
2024-01-31T21:33:33.597Z,101465.60
2024-01-31T21:36:03.450Z,101461.80
2024-01-31T21:38:31.879Z,101457.60
2024-01-31T21:41:00.785Z,101460.00
2024-01-31T21:43:29.377Z,101463.80
2024-01-31T21:45:57.263Z,101458.60
2024-01-31T21:48:28.938Z,101462.00
2024-01-31T21:50:57.420Z,101458.60
2024-01-31T21:53:25.510Z,101461.40
2024-01-31T21:55:53.617Z,101466.00
2024-01-31T21:58:22.111Z,101464.20
2024-01-31T22:00:50.566Z,101463.60
2024-01-31T22:03:18.742Z,101457.80
2024-01-31T22:05:47.202Z,101453.80
2024-01-31T22:08:15.685Z,101442.40
2024-01-31T22:10:43.816Z,101440.00
2024-01-31T22:13:11.899Z,101431.40
2024-01-31T22:15:39.942Z,101426.80
2024-01-31T22:18:08.092Z,101428.20
2024-01-31T22:20:36.242Z,101430.80
2024-01-31T22:23:04.521Z,101425.20
2024-01-31T22:25:33.079Z,101425.20
2024-01-31T22:28:03.305Z,101425.20
2024-01-31T22:30:31.383Z,101430.40
2024-01-31T22:32:59.924Z,101428.40
2024-01-31T22:35:28.514Z,101427.80
2024-01-31T22:37:56.725Z,101431.20
2024-01-31T22:40:28.111Z,101431.00
2024-01-31T22:42:56.337Z,101429.00
2024-01-31T22:45:25.265Z,101426.00
2024-01-31T22:47:53.389Z,101424.40
2024-01-31T22:50:21.598Z,101424.20
2024-01-31T22:52:49.675Z,101424.60
2024-01-31T22:55:19.126Z,101419.20
2024-01-31T22:57:47.298Z,101418.00
2024-01-31T23:00:15.777Z,101414.20
2024-01-31T23:02:43.978Z,101410.00
2024-01-31T23:05:12.151Z,101409.00
2024-01-31T23:07:40.290Z,101409.00
2024-01-31T23:10:08.917Z,101408.00
2024-01-31T23:12:37.208Z,101407.20
2024-01-31T23:15:05.668Z,101403.40
2024-01-31T23:17:33.809Z,101393.60
2024-01-31T23:20:02.161Z,101393.20
2024-01-31T23:22:30.553Z,101397.00
2024-01-31T23:24:59.025Z,101397.60
2024-01-31T23:27:27.120Z,101397.60
2024-01-31T23:29:55.375Z,101397.40
2024-01-31T23:32:23.367Z,101395.80
2024-01-31T23:34:51.518Z,101394.80
2024-01-31T23:37:19.534Z,101398.40
2024-01-31T23:39:47.860Z,101397.80
2024-01-31T23:42:16.008Z,101390.20
2024-01-31T23:44:44.147Z,101378.20
2024-01-31T23:47:12.146Z,101379.60
2024-01-31T23:49:40.341Z,101375.00
2024-01-31T23:52:08.468Z,101369.40
2024-01-31T23:54:36.454Z,101362.80
2024-01-31T23:57:04.838Z,101362.40
2024-01-31T23:59:33.041Z,101359.20
